Time;durP1;ratioP1;P1;durP2;ratioP2;P2;SDS_P1;SDS_P2;PMS_P1;PMS_P2;Temp;Humidity;BMP_temperature;BMP_pressure;BME280_temperature;BME280_humidity;BME280_pressure;Samples;Min_cycle;Max_cycle;Signal;HPM_P1;HPM_P2
2022/10/22 00:01:34;;;;;;;18.27;10.45;;;;;;;;;;4953157;28;20027;-84
2022/10/22 00:03:59;;;;;;;15.52;9.25;;;;;;;;;;4948960;28;20142;-85
2022/10/22 00:06:25;;;;;;;17.67;10.25;;;;;;;;;;4952235;28;20172;-85
2022/10/22 00:08:50;;;;;;;15.30;9.05;;;;;;;;;;4967459;28;20401;-84
2022/10/22 00:11:18;;;;;;;17.08;9.63;;;;;;;;;;4962789;28;20421;-83
2022/10/22 00:13:44;;;;;;;16.42;9.43;;;;;;;;;;4961210;28;20042;-84
2022/10/22 00:16:10;;;;;;;17.48;9.95;;;;;;;;;;4946414;28;20042;-84
2022/10/22 00:18:36;;;;;;;16.08;9.20;;;;;;;;;;4952643;28;20042;-85
2022/10/22 00:21:01;;;;;;;14.80;9.43;;;;;;;;;;4961039;28;20548;-83
2022/10/22 00:23:27;;;;;;;15.20;9.07;;;;;;;;;;4963644;28;20038;-84
2022/10/22 00:25:53;;;;;;;14.35;9.18;;;;;;;;;;4960597;28;20113;-84
2022/10/22 00:28:18;;;;;;;15.57;9.57;;;;;;;;;;4961958;28;20043;-84
2022/10/22 00:30:43;;;;;;;14.90;9.13;;;;;;;;;;4969759;28;20030;-85
2022/10/22 00:33:09;;;;;;;16.67;9.93;;;;;;;;;;4954336;28;20088;-85
2022/10/22 00:35:34;;;;;;;16.75;9.57;;;;;;;;;;4968043;28;20118;-85
2022/10/22 00:37:59;;;;;;;16.80;9.30;;;;;;;;;;4967602;28;20053;-85
2022/10/22 00:40:25;;;;;;;14.43;9.40;;;;;;;;;;4974397;28;20529;-86
2022/10/22 00:42:50;;;;;;;17.25;9.73;;;;;;;;;;4979421;28;20073;-86
2022/10/22 00:45:25;;;;;;;14.32;8.77;;;;;;;;;;4943978;28;20433;-83
2022/10/22 00:48:03;;;;;;;14.85;9.55;;;;;;;;;;4943701;28;20557;-85
2022/10/22 00:50:37;;;;;;;17.83;9.43;;;;;;;;;;4945023;28;20041;-86
2022/10/22 00:53:06;;;;;;;17.98;9.25;;;;;;;;;;4942903;28;20409;-86
2022/10/22 00:55:32;;;;;;;15.43;8.75;;;;;;;;;;4953212;28;20565;-87
2022/10/22 00:57:58;;;;;;;19.50;10.25;;;;;;;;;;4951768;28;20089;-83
2022/10/22 01:00:23;;;;;;;17.02;10.25;;;;;;;;;;4946593;28;20039;-85
2022/10/22 01:02:50;;;;;;;16.58;9.48;;;;;;;;;;4951820;28;20089;-83
2022/10/22 01:05:16;;;;;;;17.33;9.68;;;;;;;;;;4961472;28;20101;-82
2022/10/22 01:07:48;;;;;;;17.45;10.75;;;;;;;;;;4958295;28;20038;-85
2022/10/22 01:10:33;;;;;;;16.85;9.48;;;;;;;;;;4946739;28;20054;-85
2022/10/22 01:13:08;;;;;;;18.88;9.70;;;;;;;;;;4960180;28;20042;-85
2022/10/22 01:15:51;;;;;;;21.90;9.63;;;;;;;;;;4963842;28;20041;-83
2022/10/22 01:18:19;;;;;;;18.85;9.95;;;;;;;;;;4979774;28;20678;-85
2022/10/22 01:20:51;;;;;;;16.58;9.02;;;;;;;;;;4967530;28;20505;-86
2022/10/22 01:23:31;;;;;;;17.92;9.27;;;;;;;;;;4976669;28;20512;-85
2022/10/22 01:26:08;;;;;;;18.73;9.77;;;;;;;;;;4969207;28;20106;-85
2022/10/22 01:28:48;;;;;;;19.25;9.95;;;;;;;;;;4973763;28;20157;-84
2022/10/22 01:31:14;;;;;;;16.52;9.10;;;;;;;;;;4977154;28;20496;-86
2022/10/22 01:33:41;;;;;;;15.80;8.50;;;;;;;;;;4966657;28;20034;-85
2022/10/22 01:36:06;;;;;;;13.63;7.75;;;;;;;;;;4965525;28;20133;-81
2022/10/22 01:38:32;;;;;;;16.17;9.05;;;;;;;;;;4969484;28;20721;-86
2022/10/22 01:40:58;;;;;;;16.77;9.00;;;;;;;;;;4969042;28;20239;-85
2022/10/22 01:43:23;;;;;;;16.30;9.25;;;;;;;;;;4968087;28;20039;-84
2022/10/22 01:45:51;;;;;;;16.23;9.32;;;;;;;;;;4965666;28;20346;-86
2022/10/22 01:48:38;;;;;;;14.52;8.88;;;;;;;;;;4968431;28;20121;-84
2022/10/22 01:51:15;;;;;;;15.65;7.95;;;;;;;;;;4957319;28;20031;-85
2022/10/22 01:53:53;;;;;;;;;;;;;;;;;;4980199;28;20040;-85
2022/10/22 01:56:21;;;;;;;;;;;;;;;;;;4950449;28;19925;-83
2022/10/22 01:58:54;;;;;;;13.32;7.82;;;;;;;;;;4961223;28;19983;-85
2022/10/22 02:01:19;;;;;;;14.77;8.40;;;;;;;;;;4946268;28;20031;-85
2022/10/22 02:03:54;;;;;;;14.43;8.00;;;;;;;;;;4975933;28;20108;-83
2022/10/22 02:06:22;;;;;;;15.00;8.07;;;;;;;;;;4978901;28;20046;-84
2022/10/22 02:08:49;;;;;;;14.55;8.65;;;;;;;;;;4944699;28;20042;-83
2022/10/22 02:11:14;;;;;;;17.63;9.07;;;;;;;;;;4950852;28;20064;-85
2022/10/22 02:13:46;;;;;;;16.40;8.35;;;;;;;;;;4950122;28;20066;-85
2022/10/22 02:16:15;;;;;;;15.98;9.45;;;;;;;;;;4966824;28;20035;-85
2022/10/22 02:18:43;;;;;;;16.02;8.63;;;;;;;;;;4945774;28;20025;-86
2022/10/22 02:21:08;;;;;;;14.18;8.18;;;;;;;;;;4967104;28;20042;-85
2022/10/22 02:23:34;;;;;;;16.50;8.65;;;;;;;;;;4966850;28;20041;-84
2022/10/22 02:26:06;;;;;;;17.25;8.80;;;;;;;;;;4965451;28;20034;-85
2022/10/22 02:28:36;;;;;;;15.35;8.65;;;;;;;;;;4966522;28;20034;-85
2022/10/22 02:31:09;;;;;;;15.48;8.52;;;;;;;;;;4953737;28;20081;-85
2022/10/22 02:33:39;;;;;;;15.00;8.95;;;;;;;;;;4954942;28;20757;-85
2022/10/22 02:36:06;;;;;;;16.42;9.73;;;;;;;;;;4955341;28;20054;-84
2022/10/22 02:38:31;;;;;;;16.25;9.23;;;;;;;;;;4964869;28;20022;-85
2022/10/22 02:40:57;;;;;;;15.75;9.15;;;;;;;;;;4955052;28;20046;-82
2022/10/22 02:43:23;;;;;;;16.85;9.25;;;;;;;;;;4965881;28;20039;-85
2022/10/22 02:45:49;;;;;;;15.55;9.07;;;;;;;;;;4963211;28;20041;-84
2022/10/22 02:48:14;;;;;;;16.30;9.70;;;;;;;;;;4946869;28;20590;-85
2022/10/22 02:50:40;;;;;;;16.58;9.35;;;;;;;;;;4954429;28;20077;-84
2022/10/22 02:53:05;;;;;;;15.35;9.55;;;;;;;;;;4969670;28;20192;-85
2022/10/22 02:55:30;;;;;;;13.93;8.57;;;;;;;;;;4954643;28;20486;-85
2022/10/22 02:57:56;;;;;;;14.50;8.40;;;;;;;;;;4950550;28;20046;-85
2022/10/22 03:00:21;;;;;;;15.52;8.50;;;;;;;;;;4953452;28;20086;-86
2022/10/22 03:02:47;;;;;;;14.27;8.80;;;;;;;;;;4953704;28;20352;-85
2022/10/22 03:05:12;;;;;;;15.25;9.05;;;;;;;;;;4968055;28;20054;-85
2022/10/22 03:07:38;;;;;;;16.77;9.13;;;;;;;;;;4949758;28;20045;-86
2022/10/22 03:10:04;;;;;;;14.95;8.40;;;;;;;;;;4964764;28;20031;-84
2022/10/22 03:12:29;;;;;;;16.73;9.50;;;;;;;;;;4951617;28;20038;-84
2022/10/22 03:14:55;;;;;;;13.40;8.30;;;;;;;;;;4963058;28;20084;-87
2022/10/22 03:17:20;;;;;;;13.20;8.43;;;;;;;;;;4963549;28;20054;-85
2022/10/22 03:19:45;;;;;;;15.25;8.48;;;;;;;;;;4966851;28;20425;-85
2022/10/22 03:22:21;;;;;;;14.18;8.02;;;;;;;;;;4952939;28;20069;-85
2022/10/22 03:24:49;;;;;;;14.90;8.43;;;;;;;;;;4962918;28;20038;-86
2022/10/22 03:27:15;;;;;;;14.43;8.82;;;;;;;;;;4952298;28;20057;-85
2022/10/22 03:29:41;;;;;;;14.43;8.80;;;;;;;;;;4953027;28;20113;-85
2022/10/22 03:32:07;;;;;;;18.65;9.38;;;;;;;;;;4953484;28;21326;-83
2022/10/22 03:34:32;;;;;;;14.13;8.00;;;;;;;;;;4970269;28;20500;-86
2022/10/22 03:36:59;;;;;;;15.40;8.07;;;;;;;;;;4968342;28;20512;-84
2022/10/22 03:39:27;;;;;;;15.82;9.32;;;;;;;;;;4952270;28;20141;-85
2022/10/22 03:41:53;;;;;;;15.52;8.88;;;;;;;;;;4941617;28;20069;-85
2022/10/22 03:44:19;;;;;;;14.68;8.05;;;;;;;;;;4953465;28;20474;-85
2022/10/22 03:46:44;;;;;;;14.05;8.20;;;;;;;;;;4968811;28;20402;-85
2022/10/22 03:49:10;;;;;;;14.85;8.57;;;;;;;;;;4946318;28;20042;-84
2022/10/22 03:51:35;;;;;;;13.70;8.02;;;;;;;;;;4953657;28;20033;-86
2022/10/22 03:54:01;;;;;;;13.65;8.02;;;;;;;;;;4960100;28;20031;-85
2022/10/22 03:56:27;;;;;;;14.88;8.65;;;;;;;;;;4952485;28;20046;-84
2022/10/22 03:58:56;;;;;;;14.05;7.95;;;;;;;;;;4943406;28;20639;-86
2022/10/22 04:01:21;;;;;;;15.27;8.73;;;;;;;;;;4958516;28;20117;-86
2022/10/22 04:03:47;;;;;;;15.15;8.60;;;;;;;;;;4967522;28;20039;-86
2022/10/22 04:06:12;;;;;;;15.77;8.70;;;;;;;;;;4968059;28;20050;-83
2022/10/22 04:08:39;;;;;;;14.48;8.02;;;;;;;;;;4963305;28;20031;-86
2022/10/22 04:11:05;;;;;;;16.15;8.93;;;;;;;;;;4953831;28;20386;-86
2022/10/22 04:13:30;;;;;;;13.90;8.25;;;;;;;;;;4968399;28;20042;-84
2022/10/22 04:16:15;;;;;;;14.38;8.15;;;;;;;;;;4962260;28;20393;-83
2022/10/22 04:18:41;;;;;;;14.48;8.00;;;;;;;;;;4968654;28;20390;-85
2022/10/22 04:21:09;;;;;;;16.13;9.20;;;;;;;;;;4951422;28;20201;-82
2022/10/22 04:23:34;;;;;;;13.70;7.80;;;;;;;;;;4964361;28;20034;-83
2022/10/22 04:26:01;;;;;;;15.43;8.45;;;;;;;;;;4961239;28;20796;-85
2022/10/22 04:28:27;;;;;;;15.55;8.98;;;;;;;;;;4952020;28;20046;-83
2022/10/22 04:30:52;;;;;;;14.95;8.07;;;;;;;;;;4952234;28;20517;-84
2022/10/22 04:33:17;;;;;;;15.43;8.45;;;;;;;;;;4971218;28;20039;-84
2022/10/22 04:35:43;;;;;;;14.10;7.80;;;;;;;;;;4952283;28;20030;-84
2022/10/22 04:38:08;;;;;;;18.02;9.32;;;;;;;;;;4965858;28;20375;-85
2022/10/22 04:40:33;;;;;;;16.60;9.23;;;;;;;;;;4954300;28;20070;-83
2022/10/22 04:42:59;;;;;;;16.00;9.02;;;;;;;;;;4963126;28;20038;-85
2022/10/22 04:45:24;;;;;;;14.25;9.15;;;;;;;;;;4967842;28;20107;-84
2022/10/22 04:47:49;;;;;;;15.93;8.70;;;;;;;;;;4962756;28;20047;-85
2022/10/22 04:50:15;;;;;;;14.10;8.15;;;;;;;;;;4959513;28;20049;-84
2022/10/22 04:52:40;;;;;;;17.42;9.45;;;;;;;;;;4951127;28;20037;-84
2022/10/22 04:55:06;;;;;;;17.35;9.48;;;;;;;;;;4962765;28;20065;-85
2022/10/22 04:57:37;;;;;;;16.60;9.30;;;;;;;;;;4961363;28;20058;-85
2022/10/22 05:00:04;;;;;;;18.98;8.70;;;;;;;;;;4978705;28;20066;-85
2022/10/22 05:02:29;;;;;;;17.25;9.32;;;;;;;;;;4948665;28;20034;-84
2022/10/22 05:04:54;;;;;;;17.30;9.38;;;;;;;;;;4957866;28;20107;-85
2022/10/22 05:07:20;;;;;;;17.35;9.50;;;;;;;;;;4943646;28;20046;-85
2022/10/22 05:09:45;;;;;;;16.60;9.13;;;;;;;;;;4954089;28;20042;-85
2022/10/22 05:12:10;;;;;;;17.85;9.27;;;;;;;;;;4954379;28;20038;-85
2022/10/22 05:14:36;;;;;;;16.85;9.25;;;;;;;;;;4969581;28;20047;-85
2022/10/22 05:17:01;;;;;;;15.15;8.80;;;;;;;;;;4966108;28;20065;-85
2022/10/22 05:19:28;;;;;;;15.05;8.43;;;;;;;;;;4953706;28;20124;-85
2022/10/22 05:21:56;;;;;;;15.70;9.70;;;;;;;;;;4951565;28;20034;-84
2022/10/22 05:24:23;;;;;;;14.20;8.68;;;;;;;;;;4953182;28;20058;-85
2022/10/22 05:26:50;;;;;;;16.30;9.80;;;;;;;;;;4945759;28;20041;-84
2022/10/22 05:29:15;;;;;;;15.88;8.18;;;;;;;;;;4954509;28;20968;-85
2022/10/22 05:31:40;;;;;;;18.67;9.35;;;;;;;;;;4954102;28;20027;-85
2022/10/22 05:34:06;;;;;;;14.50;8.50;;;;;;;;;;4963570;28;20057;-84
2022/10/22 05:36:31;;;;;;;16.52;9.07;;;;;;;;;;4952708;28;20068;-84
2022/10/22 05:38:57;;;;;;;15.65;8.95;;;;;;;;;;4962218;28;20077;-85
2022/10/22 05:41:24;;;;;;;14.68;8.88;;;;;;;;;;4951437;28;20038;-84
2022/10/22 05:43:50;;;;;;;16.30;9.10;;;;;;;;;;4949177;28;20039;-84
2022/10/22 05:46:20;;;;;;;14.30;7.47;;;;;;;;;;4961525;28;20543;-85
2022/10/22 05:48:56;;;;;;;17.17;9.05;;;;;;;;;;4945120;28;20062;-85
2022/10/22 05:51:23;;;;;;;19.92;8.95;;;;;;;;;;4942038;28;20061;-85
2022/10/22 05:53:53;;;;;;;16.35;8.65;;;;;;;;;;4958560;28;20037;-84
2022/10/22 05:56:19;;;;;;;15.82;7.93;;;;;;;;;;4954728;28;20088;-85
2022/10/22 05:58:45;;;;;;;16.45;9.15;;;;;;;;;;4965384;28;20485;-85
2022/10/22 06:01:15;;;;;;;13.90;7.93;;;;;;;;;;4951563;28;20402;-86
2022/10/22 06:03:41;;;;;;;16.55;9.63;;;;;;;;;;4979403;28;20101;-85
2022/10/22 06:06:13;;;;;;;16.02;9.07;;;;;;;;;;4955688;28;20078;-85
2022/10/22 06:08:39;;;;;;;16.65;9.88;;;;;;;;;;4981503;28;20034;-86
2022/10/22 06:11:04;;;;;;;20.95;10.00;;;;;;;;;;4966754;28;20062;-85
2022/10/22 06:13:31;;;;;;;17.08;9.30;;;;;;;;;;4956147;28;20410;-85
2022/10/22 06:15:57;;;;;;;17.75;8.98;;;;;;;;;;4951910;28;20034;-85
2022/10/22 06:18:22;;;;;;;16.27;9.57;;;;;;;;;;4971394;28;20038;-87
2022/10/22 06:20:47;;;;;;;16.48;9.02;;;;;;;;;;4955478;28;20034;-87
2022/10/22 06:23:14;;;;;;;15.30;9.13;;;;;;;;;;4964772;28;20049;-86
2022/10/22 06:25:42;;;;;;;14.77;8.82;;;;;;;;;;4957453;28;20085;-86
2022/10/22 06:28:08;;;;;;;16.42;9.38;;;;;;;;;;4960064;28;20034;-86
2022/10/22 06:30:33;;;;;;;15.90;8.82;;;;;;;;;;4952832;28;20041;-86
2022/10/22 06:32:58;;;;;;;17.67;9.15;;;;;;;;;;4955898;28;20073;-84
2022/10/22 06:35:24;;;;;;;17.92;9.57;;;;;;;;;;4970534;28;20046;-87
2022/10/22 06:37:49;;;;;;;15.27;8.35;;;;;;;;;;4972969;28;20035;-86
2022/10/22 06:40:15;;;;;;;16.02;8.75;;;;;;;;;;4954794;28;20503;-84
2022/10/22 06:42:41;;;;;;;15.80;9.10;;;;;;;;;;4954524;28;20070;-86
2022/10/22 06:45:07;;;;;;;16.45;9.00;;;;;;;;;;4953288;28;20671;-85
2022/10/22 06:47:35;;;;;;;14.40;8.63;;;;;;;;;;4954073;28;20038;-86
2022/10/22 06:50:00;;;;;;;16.13;8.95;;;;;;;;;;4982934;28;20038;-87
2022/10/22 06:52:26;;;;;;;16.20;9.13;;;;;;;;;;4964572;28;20091;-85
2022/10/22 06:54:51;;;;;;;16.48;9.63;;;;;;;;;;4971193;28;20045;-84
2022/10/22 06:57:16;;;;;;;17.13;10.30;;;;;;;;;;4949889;28;20066;-85
2022/10/22 06:59:42;;;;;;;14.48;8.73;;;;;;;;;;4948014;28;20130;-86
2022/10/22 07:02:09;;;;;;;16.92;9.55;;;;;;;;;;4945994;28;20092;-86
2022/10/22 07:04:34;;;;;;;17.85;9.93;;;;;;;;;;4953998;28;20043;-86
2022/10/22 07:07:19;;;;;;;14.57;9.13;;;;;;;;;;4962249;28;20034;-86
2022/10/22 07:09:48;;;;;;;14.23;8.88;;;;;;;;;;4876305;29;20124;-86
2022/10/22 07:12:14;;;;;;;18.27;9.40;;;;;;;;;;4886239;29;20504;-86
2022/10/22 07:14:42;;;;;;;14.57;8.68;;;;;;;;;;4876150;29;20587;-86
2022/10/22 07:17:08;;;;;;;15.73;8.73;;;;;;;;;;4859019;29;20147;-85
2022/10/22 07:19:33;;;;;;;13.73;8.13;;;;;;;;;;4875838;29;20032;-86
2022/10/22 07:21:59;;;;;;;16.55;9.35;;;;;;;;;;4878961;29;20063;-85
2022/10/22 07:24:24;;;;;;;13.90;8.90;;;;;;;;;;4873651;29;20056;-85
2022/10/22 07:26:50;;;;;;;13.07;8.20;;;;;;;;;;4871700;29;20041;-85
2022/10/22 07:29:16;;;;;;;13.85;8.50;;;;;;;;;;4855090;29;20045;-83
2022/10/22 07:31:41;;;;;;;12.98;8.43;;;;;;;;;;4877077;29;20040;-84
2022/10/22 07:34:07;;;;;;;14.75;8.70;;;;;;;;;;4890062;29;20049;-83
2022/10/22 07:36:34;;;;;;;13.80;7.90;;;;;;;;;;4875875;29;20551;-83
2022/10/22 07:39:00;;;;;;;13.15;8.07;;;;;;;;;;4868211;29;20052;-84
2022/10/22 07:41:27;;;;;;;13.05;7.95;;;;;;;;;;4873504;29;20041;-84
2022/10/22 07:43:52;;;;;;;13.33;8.30;;;;;;;;;;4868242;29;20081;-84
2022/10/22 07:46:18;;;;;;;12.15;8.13;;;;;;;;;;4903046;28;20165;-84
2022/10/22 07:48:44;;;;;;;14.50;8.20;;;;;;;;;;4980508;28;20548;-84
2022/10/22 07:51:09;;;;;;;12.40;8.32;;;;;;;;;;4962718;28;20043;-83
2022/10/22 07:53:35;;;;;;;15.80;8.52;;;;;;;;;;4976158;28;20034;-82
2022/10/22 07:56:01;;;;;;;14.13;8.85;;;;;;;;;;4951566;28;20474;-83
2022/10/22 07:58:26;;;;;;;13.13;7.97;;;;;;;;;;4968963;28;20034;-82
2022/10/22 08:00:54;;;;;;;12.98;8.23;;;;;;;;;;4952929;28;20031;-83
2022/10/22 08:03:20;;;;;;;13.55;8.30;;;;;;;;;;4947039;28;20049;-82
2022/10/22 08:05:46;;;;;;;14.00;8.73;;;;;;;;;;4952908;28;20038;-83
2022/10/22 08:08:13;;;;;;;13.07;8.50;;;;;;;;;;4960126;28;20066;-83
2022/10/22 08:10:38;;;;;;;13.50;8.75;;;;;;;;;;4952604;28;20539;-82
2022/10/22 08:13:04;;;;;;;13.40;8.23;;;;;;;;;;4972243;28;20070;-83
2022/10/22 08:15:30;;;;;;;12.90;8.13;;;;;;;;;;4985823;28;20046;-83
2022/10/22 08:17:55;;;;;;;12.00;7.90;;;;;;;;;;4962972;28;20030;-81
2022/10/22 08:20:21;;;;;;;12.02;7.95;;;;;;;;;;4951334;28;20042;-83
2022/10/22 08:22:46;;;;;;;12.32;7.75;;;;;;;;;;4962232;28;20121;-83
2022/10/22 08:25:12;;;;;;;11.60;7.38;;;;;;;;;;4975776;28;20518;-85
2022/10/22 08:27:37;;;;;;;12.93;8.18;;;;;;;;;;4964056;28;20026;-83
2022/10/22 08:30:04;;;;;;;12.57;7.70;;;;;;;;;;4964732;28;20449;-83
2022/10/22 08:32:29;;;;;;;11.68;7.47;;;;;;;;;;4949516;28;20045;-80
2022/10/22 08:34:55;;;;;;;13.63;8.25;;;;;;;;;;4952829;28;20498;-81
2022/10/22 08:37:20;;;;;;;12.30;7.82;;;;;;;;;;4960438;28;20473;-81
2022/10/22 08:39:45;;;;;;;12.00;7.97;;;;;;;;;;4967670;28;20462;-81
2022/10/22 08:42:26;;;;;;;14.68;8.15;;;;;;;;;;4968484;28;20149;-82
2022/10/22 08:44:57;;;;;;;12.93;8.45;;;;;;;;;;4978667;28;20183;-81
2022/10/22 08:48:20;;;;;;;13.15;8.35;;;;;;;;;;4978809;28;20037;-82
2022/10/22 08:50:48;;;;;;;12.73;7.88;;;;;;;;;;4876772;29;21123;-82
2022/10/22 08:53:37;;;;;;;13.32;8.25;;;;;;;;;;4862494;29;20140;-81
2022/10/22 08:56:02;;;;;;;13.23;8.18;;;;;;;;;;4918339;28;20064;-82
2022/10/22 08:58:36;;;;;;;12.88;8.32;;;;;;;;;;4976537;28;20038;-81
2022/10/22 09:01:18;;;;;;;11.75;7.82;;;;;;;;;;4976612;28;20520;-81
2022/10/22 09:03:58;;;;;;;13.00;7.72;;;;;;;;;;4944399;28;20053;-82
2022/10/22 09:06:29;;;;;;;10.75;7.22;;;;;;;;;;4959758;28;20046;-83
2022/10/22 09:08:59;;;;;;;10.20;7.18;;;;;;;;;;4962967;28;20941;-82
2022/10/22 09:11:31;;;;;;;12.27;7.82;;;;;;;;;;4949639;28;20505;-82
2022/10/22 09:13:58;;;;;;;10.73;7.35;;;;;;;;;;4966528;28;20096;-82
2022/10/22 09:16:33;;;;;;;12.68;7.72;;;;;;;;;;4951793;28;20108;-83
2022/10/22 09:19:20;;;;;;;11.75;7.60;;;;;;;;;;4964796;28;20051;-83
2022/10/22 09:21:54;;;;;;;12.18;7.28;;;;;;;;;;4966241;28;20093;-82
2022/10/22 09:24:29;;;;;;;9.70;6.85;;;;;;;;;;4966157;28;20394;-82
2022/10/22 09:26:55;;;;;;;13.93;7.10;;;;;;;;;;4949578;28;20034;-83
2022/10/22 09:29:36;;;;;;;11.88;7.50;;;;;;;;;;4951479;28;20501;-83
2022/10/22 09:32:02;;;;;;;11.80;7.50;;;;;;;;;;4942197;28;20045;-82
2022/10/22 09:34:28;;;;;;;10.93;6.90;;;;;;;;;;4951530;28;20537;-83
2022/10/22 09:37:16;;;;;;;11.25;7.20;;;;;;;;;;4949950;28;20031;-83
2022/10/22 09:39:46;;;;;;;8.88;5.82;;;;;;;;;;4945556;28;20038;-83
2022/10/22 09:42:17;;;;;;;12.27;7.18;;;;;;;;;;4977118;28;20505;-83
2022/10/22 09:44:43;;;;;;;11.65;7.28;;;;;;;;;;4963045;28;20042;-82
2022/10/22 09:47:27;;;;;;;11.45;7.50;;;;;;;;;;4942525;28;20060;-80
2022/10/22 09:50:19;;;;;;;12.73;7.75;;;;;;;;;;4977213;28;20444;-81
2022/10/22 09:52:45;;;;;;;10.45;7.00;;;;;;;;;;4966837;28;20914;-82
2022/10/22 09:55:18;;;;;;;10.65;7.03;;;;;;;;;;4954423;28;20037;-81
2022/10/22 09:57:51;;;;;;;10.25;5.90;;;;;;;;;;4953608;28;20034;-81
2022/10/22 10:00:18;;;;;;;10.45;6.57;;;;;;;;;;4949475;28;20046;-80
2022/10/22 10:02:44;;;;;;;9.97;6.50;;;;;;;;;;4947882;28;20082;-81
2022/10/22 10:05:18;;;;;;;10.52;6.75;;;;;;;;;;4963731;28;20305;-82
2022/10/22 10:07:46;;;;;;;10.15;6.40;;;;;;;;;;4960707;28;20076;-84
2022/10/22 10:10:26;;;;;;;;;;;;;;;;;;4967829;28;20456;-85
2022/10/22 10:13:14;;;;;;;9.80;5.95;;;;;;;;;;4947388;28;19944;-84
2022/10/22 10:16:09;;;;;;;10.05;6.00;;;;;;;;;;4948975;28;20108;-84
2022/10/22 10:18:57;;;;;;;9.75;6.30;;;;;;;;;;4977518;28;20653;-84
2022/10/22 10:21:28;;;;;;;9.30;6.10;;;;;;;;;;4942251;28;20039;-84
2022/10/22 10:24:02;;;;;;;10.10;6.40;;;;;;;;;;4980705;28;20109;-85
2022/10/22 10:26:36;;;;;;;8.98;5.95;;;;;;;;;;4979936;28;20042;-84
2022/10/22 10:29:07;;;;;;;9.93;6.05;;;;;;;;;;4949009;28;20120;-85
2022/10/22 10:31:51;;;;;;;10.13;6.20;;;;;;;;;;4976019;28;20834;-84
2022/10/22 10:34:29;;;;;;;9.25;6.13;;;;;;;;;;4965621;28;20061;-85
2022/10/22 10:37:01;;;;;;;9.40;5.88;;;;;;;;;;4978015;28;20129;-84
2022/10/22 10:39:50;;;;;;;7.95;5.70;;;;;;;;;;4951590;28;20133;-80
2022/10/22 10:42:28;;;;;;;8.88;6.35;;;;;;;;;;4956871;28;20038;-85
2022/10/22 10:44:53;;;;;;;9.60;5.57;;;;;;;;;;4962650;28;20509;-83
2022/10/22 10:47:36;;;;;;;9.15;5.78;;;;;;;;;;4984151;28;20038;-83
2022/10/22 10:50:16;;;;;;;8.70;5.60;;;;;;;;;;4973771;28;20133;-85
2022/10/22 10:53:11;;;;;;;10.23;6.38;;;;;;;;;;4981452;28;20037;-83
2022/10/22 10:55:40;;;;;;;11.57;6.10;;;;;;;;;;4950987;28;20023;-84
2022/10/22 10:58:18;;;;;;;7.43;4.82;;;;;;;;;;4978930;28;20057;-83
2022/10/22 11:00:54;;;;;;;7.78;4.78;;;;;;;;;;4963693;28;20031;-81
2022/10/22 11:03:28;;;;;;;7.20;4.70;;;;;;;;;;4947857;28;20559;-82
2022/10/22 11:05:59;;;;;;;7.47;4.22;;;;;;;;;;4983244;28;20045;-88
2022/10/22 11:08:30;;;;;;;6.97;4.50;;;;;;;;;;4957545;28;20045;-85
2022/10/22 11:11:01;;;;;;;6.32;4.20;;;;;;;;;;4953278;28;20054;-85
2022/10/22 11:14:07;;;;;;;6.30;4.15;;;;;;;;;;4968954;28;20038;-85
2022/10/22 11:16:44;;;;;;;6.72;4.00;;;;;;;;;;4960233;28;20074;-87
2022/10/22 11:19:24;;;;;;;5.15;3.45;;;;;;;;;;4949945;28;20042;-87
2022/10/22 11:21:53;;;;;;;6.43;3.72;;;;;;;;;;4953338;28;20031;-88
2022/10/22 11:24:27;;;;;;;7.55;4.25;;;;;;;;;;4975734;28;20514;-88
2022/10/22 11:27:01;;;;;;;5.40;3.55;;;;;;;;;;4977137;28;20037;-89
2022/10/22 11:29:33;;;;;;;5.85;3.47;;;;;;;;;;4961202;28;20615;-88
2022/10/22 11:32:00;;;;;;;5.30;3.10;;;;;;;;;;4968020;28;20039;-88
2022/10/22 11:34:41;;;;;;;5.25;2.75;;;;;;;;;;4970782;28;20047;-88
2022/10/22 11:37:08;;;;;;;5.10;2.47;;;;;;;;;;4944289;28;20034;-87
2022/10/22 11:39:37;;;;;;;;;;;;;;;;;;4949614;28;20034;-88
2022/10/22 11:42:08;;;;;;;5.40;2.90;;;;;;;;;;4955795;28;19922;-89
2022/10/22 11:44:47;;;;;;;4.93;2.45;;;;;;;;;;4957836;28;20112;-89
2022/10/22 11:47:57;;;;;;;6.50;2.80;;;;;;;;;;4944990;28;20035;-89
2022/10/22 11:50:26;;;;;;;4.72;2.40;;;;;;;;;;4948464;28;20042;-88
2022/10/22 11:53:00;;;;;;;5.80;2.83;;;;;;;;;;4967576;28;20042;-88
2022/10/22 11:55:54;;;;;;;5.78;2.72;;;;;;;;;;4961238;28;20043;-87
2022/10/22 11:58:25;;;;;;;4.85;2.63;;;;;;;;;;4965663;28;20062;-88
2022/10/22 12:00:51;;;;;;;5.95;2.83;;;;;;;;;;4976893;28;20456;-88
2022/10/22 12:03:40;;;;;;;5.50;2.85;;;;;;;;;;4949725;28;20133;-88
2022/10/22 12:06:11;;;;;;;4.57;2.63;;;;;;;;;;4968383;28;20498;-87
2022/10/22 12:08:48;;;;;;;5.50;2.50;;;;;;;;;;4978957;28;20038;-87
2022/10/22 12:11:22;;;;;;;;;;;;;;;;;;4952416;28;20459;-88
2022/10/22 12:14:06;;;;;;;6.15;2.58;;;;;;;;;;4917899;28;20318;-89
2022/10/22 12:16:36;;;;;;;5.15;2.05;;;;;;;;;;4951689;28;20124;-89
2022/10/22 12:19:50;;;;;;;4.95;2.10;;;;;;;;;;4946901;28;20044;-88
2022/10/22 12:22:20;;;;;;;4.30;2.00;;;;;;;;;;4961196;28;20092;-90
2022/10/22 12:24:51;;;;;;;3.88;1.90;;;;;;;;;;4946840;28;20039;-89
2022/10/22 12:27:19;;;;;;;4.63;2.38;;;;;;;;;;4959687;28;20418;-89
2022/10/22 12:29:44;;;;;;;5.63;2.08;;;;;;;;;;4947789;28;20730;-88
2022/10/22 12:32:21;;;;;;;4.57;1.85;;;;;;;;;;4965728;28;20039;-89
2022/10/22 12:34:48;;;;;;;5.80;2.08;;;;;;;;;;4943414;28;20405;-89
2022/10/22 12:37:15;;;;;;;3.45;1.73;;;;;;;;;;4941285;28;20053;-90
2022/10/22 12:39:41;;;;;;;3.45;1.83;;;;;;;;;;4928033;28;20039;-89
2022/10/22 12:42:22;;;;;;;4.07;1.80;;;;;;;;;;4946659;28;20646;-91
2022/10/22 12:44:57;;;;;;;4.55;1.90;;;;;;;;;;4945236;28;20409;-88
2022/10/22 12:47:25;;;;;;;3.75;1.65;;;;;;;;;;4947311;28;20046;-86
2022/10/22 12:49:50;;;;;;;5.05;1.75;;;;;;;;;;4946413;28;20143;-89
2022/10/22 12:52:19;;;;;;;5.95;1.70;;;;;;;;;;4967501;28;20440;-89
2022/10/22 12:54:47;;;;;;;3.72;1.58;;;;;;;;;;4949584;28;20065;-89
2022/10/22 12:57:13;;;;;;;;;;;;;;;;;;4952529;28;20528;-89
2022/10/22 12:59:40;;;;;;;4.40;1.60;;;;;;;;;;4969109;28;20672;-88
2022/10/22 13:02:25;;;;;;;4.47;1.77;;;;;;;;;;4946550;28;20497;-88
2022/10/22 13:05:25;;;;;;;3.92;1.77;;;;;;;;;;4959303;28;20109;-89
2022/10/22 13:07:53;;;;;;;4.18;1.40;;;;;;;;;;4909315;28;20497;-89
2022/10/22 13:10:18;;;;;;;;;;;;;;;;;;4954198;28;20034;-88
2022/10/22 13:12:48;;;;;;;4.85;1.45;;;;;;;;;;4967275;28;19928;-88
2022/10/22 13:15:27;;;;;;;5.97;1.67;;;;;;;;;;4943795;28;20417;-88
2022/10/22 13:18:14;;;;;;;5.60;1.70;;;;;;;;;;4958989;28;20487;-89
2022/10/22 13:21:09;;;;;;;;;;;;;;;;;;4970737;28;20461;-89
2022/10/22 13:23:34;;;;;;;4.50;1.75;;;;;;;;;;4939915;28;19924;-88
2022/10/22 13:26:03;;;;;;;4.82;1.50;;;;;;;;;;4950978;28;20122;-89
2022/10/22 13:28:30;;;;;;;5.95;1.50;;;;;;;;;;4969086;28;20463;-88
2022/10/22 13:30:58;;;;;;;3.08;1.30;;;;;;;;;;4965000;28;20034;-88
2022/10/22 13:33:33;;;;;;;5.60;1.40;;;;;;;;;;4960181;28;20047;-89
2022/10/22 13:35:59;;;;;;;2.97;1.48;;;;;;;;;;4946898;28;22114;-89
2022/10/22 13:38:26;;;;;;;3.20;1.30;;;;;;;;;;4952750;28;20477;-88
2022/10/22 13:40:51;;;;;;;3.22;1.23;;;;;;;;;;4951282;28;20026;-89
2022/10/22 13:43:17;;;;;;;5.45;1.60;;;;;;;;;;4951081;28;20089;-88
2022/10/22 13:45:47;;;;;;;3.17;1.15;;;;;;;;;;4961596;28;20033;-89
2022/10/22 13:48:15;;;;;;;3.10;1.05;;;;;;;;;;4963570;28;20042;-88
2022/10/22 13:50:41;;;;;;;4.28;1.05;;;;;;;;;;4943061;28;20044;-88
2022/10/22 13:53:16;;;;;;;4.40;1.30;;;;;;;;;;4966951;28;20046;-89
2022/10/22 13:55:43;;;;;;;3.17;1.25;;;;;;;;;;4958775;28;20732;-90
2022/10/22 13:58:11;;;;;;;2.33;1.08;;;;;;;;;;4943459;28;20137;-84
2022/10/22 14:00:37;;;;;;;3.42;1.17;;;;;;;;;;4950763;28;20081;-89
2022/10/22 14:03:03;;;;;;;3.88;1.30;;;;;;;;;;4953253;28;20042;-89
2022/10/22 14:05:31;;;;;;;6.03;1.20;;;;;;;;;;4950416;28;20099;-88
2022/10/22 14:07:58;;;;;;;4.28;1.30;;;;;;;;;;4966774;28;20040;-88
2022/10/22 14:10:24;;;;;;;3.03;1.00;;;;;;;;;;4950941;28;20039;-90
2022/10/22 14:12:51;;;;;;;2.95;1.00;;;;;;;;;;4948137;28;20035;-89
2022/10/22 14:15:18;;;;;;;4.22;1.40;;;;;;;;;;4953383;28;20053;-89
2022/10/22 14:17:51;;;;;;;4.30;1.42;;;;;;;;;;4948624;28;20499;-87
2022/10/22 14:20:20;;;;;;;5.43;1.42;;;;;;;;;;4976741;28;20449;-87
2022/10/22 14:22:47;;;;;;;4.82;1.00;;;;;;;;;;4948194;28;20038;-88
2022/10/22 14:25:16;;;;;;;5.68;1.17;;;;;;;;;;4945088;28;20097;-88
2022/10/22 14:27:42;;;;;;;4.45;1.20;;;;;;;;;;4952907;28;20439;-87
2022/10/22 14:30:08;;;;;;;3.88;1.20;;;;;;;;;;4966650;28;20062;-86
2022/10/22 14:32:33;;;;;;;3.75;1.02;;;;;;;;;;4965878;28;20407;-88
2022/10/22 14:35:00;;;;;;;3.30;1.00;;;;;;;;;;4953865;28;20043;-88
2022/10/22 14:37:26;;;;;;;4.90;0.93;;;;;;;;;;4970459;28;20041;-90
2022/10/22 14:39:58;;;;;;;4.47;1.23;;;;;;;;;;4964869;28;20044;-88
2022/10/22 14:42:24;;;;;;;6.15;1.48;;;;;;;;;;4969958;28;20040;-88
2022/10/22 14:44:50;;;;;;;3.63;0.93;;;;;;;;;;4954948;28;20062;-88
2022/10/22 14:47:15;;;;;;;3.13;1.10;;;;;;;;;;4980953;28;20568;-88
2022/10/22 14:49:40;;;;;;;3.28;1.10;;;;;;;;;;4975976;28;20101;-84
2022/10/22 14:52:06;;;;;;;3.95;1.02;;;;;;;;;;4953022;28;20117;-85